sensor_id;sensor_type;location;lat;lon;timestamp;P1;durP1;ratioP1;P2;durP2;ratioP2
55758;SDS011;41678;52.126;20.664;2022-12-10T00:01:18;64.22;;;27.10;;
55758;SDS011;41678;52.126;20.664;2022-12-10T00:06:38;67.43;;;25.20;;
55758;SDS011;41678;52.126;20.664;2022-12-10T00:11:59;59.28;;;24.27;;
55758;SDS011;41678;52.126;20.664;2022-12-10T00:17:19;56.88;;;25.55;;
55758;SDS011;41678;52.126;20.664;2022-12-10T00:22:38;63.55;;;25.35;;
55758;SDS011;41678;52.126;20.664;2022-12-10T00:27:57;76.22;;;24.92;;
55758;SDS011;41678;52.126;20.664;2022-12-10T00:33:17;57.67;;;21.75;;
55758;SDS011;41678;52.126;20.664;2022-12-10T00:38:37;61.53;;;25.70;;
55758;SDS011;41678;52.126;20.664;2022-12-10T00:43:58;48.40;;;21.60;;
55758;SDS011;41678;52.126;20.664;2022-12-10T00:49:20;54.72;;;23.15;;
55758;SDS011;41678;52.126;20.664;2022-12-10T00:54:42;48.83;;;23.48;;
55758;SDS011;41678;52.126;20.664;2022-12-10T01:00:02;52.42;;;26.35;;
55758;SDS011;41678;52.126;20.664;2022-12-10T01:05:24;62.22;;;24.02;;
55758;SDS011;41678;52.126;20.664;2022-12-10T01:10:44;68.15;;;26.52;;
55758;SDS011;41678;52.126;20.664;2022-12-10T01:16:12;62.28;;;24.98;;
55758;SDS011;41678;52.126;20.664;2022-12-10T01:21:33;52.03;;;22.20;;
55758;SDS011;41678;52.126;20.664;2022-12-10T01:26:54;45.83;;;20.70;;
55758;SDS011;41678;52.126;20.664;2022-12-10T01:32:15;59.55;;;24.02;;
55758;SDS011;41678;52.126;20.664;2022-12-10T01:37:34;45.55;;;22.38;;
55758;SDS011;41678;52.126;20.664;2022-12-10T01:42:54;61.47;;;24.40;;
55758;SDS011;41678;52.126;20.664;2022-12-10T01:48:13;62.85;;;25.20;;
55758;SDS011;41678;52.126;20.664;2022-12-10T01:53:33;59.05;;;22.52;;
55758;SDS011;41678;52.126;20.664;2022-12-10T01:58:54;55.70;;;23.80;;
55758;SDS011;41678;52.126;20.664;2022-12-10T02:15:21;59.25;;;25.02;;
55758;SDS011;41678;52.126;20.664;2022-12-10T02:20:57;60.55;;;21.75;;
55758;SDS011;41678;52.126;20.664;2022-12-10T02:27:02;66.82;;;26.17;;
55758;SDS011;41678;52.126;20.664;2022-12-10T02:32:33;81.25;;;26.73;;
55758;SDS011;41678;52.126;20.664;2022-12-10T02:38:00;55.72;;;24.65;;
55758;SDS011;41678;52.126;20.664;2022-12-10T02:43:24;62.42;;;24.30;;
55758;SDS011;41678;52.126;20.664;2022-12-10T02:48:47;46.38;;;19.65;;
55758;SDS011;41678;52.126;20.664;2022-12-10T03:05:34;61.28;;;21.88;;
55758;SDS011;41678;52.126;20.664;2022-12-10T03:11:11;59.50;;;23.95;;
55758;SDS011;41678;52.126;20.664;2022-12-10T03:16:34;59.47;;;24.25;;
55758;SDS011;41678;52.126;20.664;2022-12-10T03:21:56;61.20;;;21.05;;
55758;SDS011;41678;52.126;20.664;2022-12-10T03:27:18;58.50;;;20.85;;
55758;SDS011;41678;52.126;20.664;2022-12-10T03:32:39;44.92;;;20.98;;
55758;SDS011;41678;52.126;20.664;2022-12-10T03:37:58;50.42;;;19.65;;
55758;SDS011;41678;52.126;20.664;2022-12-10T03:43:18;56.25;;;20.85;;
55758;SDS011;41678;52.126;20.664;2022-12-10T03:48:40;53.75;;;24.55;;
55758;SDS011;41678;52.126;20.664;2022-12-10T03:54:00;56.60;;;20.77;;
55758;SDS011;41678;52.126;20.664;2022-12-10T03:59:19;55.40;;;22.38;;
55758;SDS011;41678;52.126;20.664;2022-12-10T04:04:39;57.17;;;21.92;;
55758;SDS011;41678;52.126;20.664;2022-12-10T04:09:58;54.58;;;19.90;;
55758;SDS011;41678;52.126;20.664;2022-12-10T04:15:18;45.72;;;17.67;;
55758;SDS011;41678;52.126;20.664;2022-12-10T04:20:56;59.58;;;21.00;;
55758;SDS011;41678;52.126;20.664;2022-12-10T04:26:35;48.50;;;17.90;;
55758;SDS011;41678;52.126;20.664;2022-12-10T04:32:12;44.10;;;17.15;;
55758;SDS011;41678;52.126;20.664;2022-12-10T04:37:32;45.83;;;15.52;;
55758;SDS011;41678;52.126;20.664;2022-12-10T04:42:51;41.88;;;19.00;;
55758;SDS011;41678;52.126;20.664;2022-12-10T04:48:11;38.97;;;15.52;;
55758;SDS011;41678;52.126;20.664;2022-12-10T04:53:46;55.95;;;18.27;;
55758;SDS011;41678;52.126;20.664;2022-12-10T04:59:06;42.45;;;17.70;;
55758;SDS011;41678;52.126;20.664;2022-12-10T05:04:27;54.40;;;19.00;;
55758;SDS011;41678;52.126;20.664;2022-12-10T05:09:47;60.78;;;22.95;;
55758;SDS011;41678;52.126;20.664;2022-12-10T05:15:07;49.75;;;18.50;;
55758;SDS011;41678;52.126;20.664;2022-12-10T05:20:27;43.95;;;20.30;;
55758;SDS011;41678;52.126;20.664;2022-12-10T05:25:46;52.00;;;19.08;;
55758;SDS011;41678;52.126;20.664;2022-12-10T05:31:13;53.33;;;16.17;;
55758;SDS011;41678;52.126;20.664;2022-12-10T05:36:34;45.08;;;17.92;;
55758;SDS011;41678;52.126;20.664;2022-12-10T05:41:54;45.60;;;18.65;;
55758;SDS011;41678;52.126;20.664;2022-12-10T05:47:14;62.50;;;21.42;;
55758;SDS011;41678;52.126;20.664;2022-12-10T05:52:34;55.28;;;16.48;;
55758;SDS011;41678;52.126;20.664;2022-12-10T05:57:53;56.80;;;19.63;;
55758;SDS011;41678;52.126;20.664;2022-12-10T06:03:13;54.15;;;17.25;;
55758;SDS011;41678;52.126;20.664;2022-12-10T06:08:33;61.85;;;21.42;;
55758;SDS011;41678;52.126;20.664;2022-12-10T06:13:55;59.38;;;20.63;;
55758;SDS011;41678;52.126;20.664;2022-12-10T06:19:15;55.58;;;20.10;;
55758;SDS011;41678;52.126;20.664;2022-12-10T06:24:35;39.72;;;17.65;;
55758;SDS011;41678;52.126;20.664;2022-12-10T06:29:54;59.08;;;18.50;;
55758;SDS011;41678;52.126;20.664;2022-12-10T06:35:14;60.03;;;21.33;;
55758;SDS011;41678;52.126;20.664;2022-12-10T06:40:34;54.20;;;19.45;;
55758;SDS011;41678;52.126;20.664;2022-12-10T06:45:53;35.85;;;10.57;;
55758;SDS011;41678;52.126;20.664;2022-12-10T06:51:13;54.90;;;19.92;;
55758;SDS011;41678;52.126;20.664;2022-12-10T06:56:33;60.55;;;21.50;;
55758;SDS011;41678;52.126;20.664;2022-12-10T07:01:53;48.22;;;16.20;;
55758;SDS011;41678;52.126;20.664;2022-12-10T07:07:12;60.10;;;18.80;;
55758;SDS011;41678;52.126;20.664;2022-12-10T07:12:31;40.20;;;15.57;;
55758;SDS011;41678;52.126;20.664;2022-12-10T07:17:52;43.72;;;15.40;;
55758;SDS011;41678;52.126;20.664;2022-12-10T07:23:11;45.90;;;16.73;;
55758;SDS011;41678;52.126;20.664;2022-12-10T07:28:32;49.55;;;17.88;;
55758;SDS011;41678;52.126;20.664;2022-12-10T07:33:53;30.47;;;13.27;;
55758;SDS011;41678;52.126;20.664;2022-12-10T07:39:14;39.35;;;15.90;;
55758;SDS011;41678;52.126;20.664;2022-12-10T07:44:36;56.83;;;17.55;;
55758;SDS011;41678;52.126;20.664;2022-12-10T07:50:02;44.63;;;16.88;;
55758;SDS011;41678;52.126;20.664;2022-12-10T07:55:22;47.25;;;17.23;;
55758;SDS011;41678;52.126;20.664;2022-12-10T08:00:41;49.00;;;16.85;;
55758;SDS011;41678;52.126;20.664;2022-12-10T08:11:50;38.63;;;15.00;;
55758;SDS011;41678;52.126;20.664;2022-12-10T08:17:10;39.00;;;16.75;;
55758;SDS011;41678;52.126;20.664;2022-12-10T08:22:30;54.47;;;14.90;;
55758;SDS011;41678;52.126;20.664;2022-12-10T08:27:49;52.47;;;15.63;;
55758;SDS011;41678;52.126;20.664;2022-12-10T08:33:09;49.42;;;15.15;;
55758;SDS011;41678;52.126;20.664;2022-12-10T08:38:28;49.03;;;17.95;;
55758;SDS011;41678;52.126;20.664;2022-12-10T08:43:50;40.70;;;13.68;;
55758;SDS011;41678;52.126;20.664;2022-12-10T08:49:13;44.33;;;16.25;;
55758;SDS011;41678;52.126;20.664;2022-12-10T08:54:34;40.08;;;14.50;;
55758;SDS011;41678;52.126;20.664;2022-12-10T08:59:54;46.50;;;16.55;;
55758;SDS011;41678;52.126;20.664;2022-12-10T09:05:14;46.65;;;15.80;;
55758;SDS011;41678;52.126;20.664;2022-12-10T09:10:35;38.45;;;12.55;;
55758;SDS011;41678;52.126;20.664;2022-12-10T09:15:56;39.50;;;13.88;;
55758;SDS011;41678;52.126;20.664;2022-12-10T09:21:16;31.40;;;12.82;;
55758;SDS011;41678;52.126;20.664;2022-12-10T09:26:36;33.75;;;13.75;;
55758;SDS011;41678;52.126;20.664;2022-12-10T09:31:56;28.48;;;12.70;;
55758;SDS011;41678;52.126;20.664;2022-12-10T09:37:15;23.58;;;9.32;;
55758;SDS011;41678;52.126;20.664;2022-12-10T09:53:53;34.33;;;11.47;;
55758;SDS011;41678;52.126;20.664;2022-12-10T09:59:22;25.70;;;10.65;;
55758;SDS011;41678;52.126;20.664;2022-12-10T10:04:50;42.17;;;14.43;;
55758;SDS011;41678;52.126;20.664;2022-12-10T10:15:41;28.70;;;10.82;;
55758;SDS011;41678;52.126;20.664;2022-12-10T10:21:03;26.52;;;10.88;;
55758;SDS011;41678;52.126;20.664;2022-12-10T10:26:26;37.63;;;12.35;;
55758;SDS011;41678;52.126;20.664;2022-12-10T10:31:46;36.55;;;12.27;;
55758;SDS011;41678;52.126;20.664;2022-12-10T10:37:06;28.98;;;11.75;;
55758;SDS011;41678;52.126;20.664;2022-12-10T10:42:52;32.88;;;11.57;;
55758;SDS011;41678;52.126;20.664;2022-12-10T10:48:16;33.80;;;12.18;;
55758;SDS011;41678;52.126;20.664;2022-12-10T10:59:02;27.30;;;11.48;;
55758;SDS011;41678;52.126;20.664;2022-12-10T11:04:55;42.95;;;11.57;;
55758;SDS011;41678;52.126;20.664;2022-12-10T11:10:17;39.38;;;12.43;;
55758;SDS011;41678;52.126;20.664;2022-12-10T11:15:39;18.75;;;8.40;;
55758;SDS011;41678;52.126;20.664;2022-12-10T11:50:09;35.42;;;13.15;;
55758;SDS011;41678;52.126;20.664;2022-12-10T11:55:48;37.75;;;12.90;;
55758;SDS011;41678;52.126;20.664;2022-12-10T12:06:34;40.75;;;14.93;;
55758;SDS011;41678;52.126;20.664;2022-12-10T12:18:14;38.15;;;13.05;;
55758;SDS011;41678;52.126;20.664;2022-12-10T12:29:22;46.07;;;15.07;;
55758;SDS011;41678;52.126;20.664;2022-12-10T12:34:55;33.45;;;13.27;;
55758;SDS011;41678;52.126;20.664;2022-12-10T12:40:47;35.22;;;14.40;;
55758;SDS011;41678;52.126;20.664;2022-12-10T12:46:12;31.70;;;13.32;;
55758;SDS011;41678;52.126;20.664;2022-12-10T12:51:38;34.22;;;13.07;;
55758;SDS011;41678;52.126;20.664;2022-12-10T13:08:40;32.97;;;13.52;;
55758;SDS011;41678;52.126;20.664;2022-12-10T13:19:28;35.88;;;14.52;;
55758;SDS011;41678;52.126;20.664;2022-12-10T13:25:00;50.00;;;14.77;;
55758;SDS011;41678;52.126;20.664;2022-12-10T13:30:36;44.45;;;12.23;;
55758;SDS011;41678;52.126;20.664;2022-12-10T13:35:59;43.42;;;12.27;;
55758;SDS011;41678;52.126;20.664;2022-12-10T13:41:19;40.53;;;10.73;;
55758;SDS011;41678;52.126;20.664;2022-12-10T13:46:59;39.53;;;15.82;;
55758;SDS011;41678;52.126;20.664;2022-12-10T13:52:33;30.30;;;12.35;;
55758;SDS011;41678;52.126;20.664;2022-12-10T13:58:49;36.00;;;12.88;;
55758;SDS011;41678;52.126;20.664;2022-12-10T14:04:01;31.65;;;11.75;;
55758;SDS011;41678;52.126;20.664;2022-12-10T14:09:39;42.47;;;11.98;;
55758;SDS011;41678;52.126;20.664;2022-12-10T14:15:05;41.83;;;11.10;;
55758;SDS011;41678;52.126;20.664;2022-12-10T14:20:26;32.37;;;11.87;;
55758;SDS011;41678;52.126;20.664;2022-12-10T14:25:48;31.83;;;11.65;;
55758;SDS011;41678;52.126;20.664;2022-12-10T14:36:37;37.75;;;12.30;;
55758;SDS011;41678;52.126;20.664;2022-12-10T14:42:04;39.95;;;13.73;;
55758;SDS011;41678;52.126;20.664;2022-12-10T14:47:26;48.38;;;14.43;;
55758;SDS011;41678;52.126;20.664;2022-12-10T14:52:49;34.92;;;13.35;;
55758;SDS011;41678;52.126;20.664;2022-12-10T14:58:14;30.85;;;12.77;;
55758;SDS011;41678;52.126;20.664;2022-12-10T15:03:43;36.08;;;11.82;;
55758;SDS011;41678;52.126;20.664;2022-12-10T15:09:06;33.42;;;11.70;;
55758;SDS011;41678;52.126;20.664;2022-12-10T15:14:45;31.05;;;11.55;;
55758;SDS011;41678;52.126;20.664;2022-12-10T15:20:27;33.20;;;12.75;;
55758;SDS011;41678;52.126;20.664;2022-12-10T15:25:50;35.50;;;13.90;;
55758;SDS011;41678;52.126;20.664;2022-12-10T15:42:05;48.10;;;14.30;;
55758;SDS011;41678;52.126;20.664;2022-12-10T15:47:26;41.58;;;16.38;;
55758;SDS011;41678;52.126;20.664;2022-12-10T15:52:46;40.40;;;16.63;;
55758;SDS011;41678;52.126;20.664;2022-12-10T15:58:11;38.40;;;14.45;;
55758;SDS011;41678;52.126;20.664;2022-12-10T16:03:32;33.47;;;13.30;;
55758;SDS011;41678;52.126;20.664;2022-12-10T16:08:52;33.50;;;14.10;;
55758;SDS011;41678;52.126;20.664;2022-12-10T16:14:11;38.92;;;16.75;;
55758;SDS011;41678;52.126;20.664;2022-12-10T16:19:32;30.60;;;13.35;;
55758;SDS011;41678;52.126;20.664;2022-12-10T16:24:52;35.58;;;15.45;;
55758;SDS011;41678;52.126;20.664;2022-12-10T16:30:12;36.60;;;15.75;;
55758;SDS011;41678;52.126;20.664;2022-12-10T16:35:35;43.42;;;16.27;;
55758;SDS011;41678;52.126;20.664;2022-12-10T16:40:56;37.72;;;14.75;;
55758;SDS011;41678;52.126;20.664;2022-12-10T16:46:16;39.67;;;15.57;;
55758;SDS011;41678;52.126;20.664;2022-12-10T16:51:36;33.03;;;14.75;;
55758;SDS011;41678;52.126;20.664;2022-12-10T16:56:56;34.90;;;15.30;;
55758;SDS011;41678;52.126;20.664;2022-12-10T17:02:16;32.25;;;13.70;;
55758;SDS011;41678;52.126;20.664;2022-12-10T17:07:36;29.25;;;13.73;;
55758;SDS011;41678;52.126;20.664;2022-12-10T17:12:56;21.48;;;10.88;;
55758;SDS011;41678;52.126;20.664;2022-12-10T17:18:17;26.10;;;12.00;;
55758;SDS011;41678;52.126;20.664;2022-12-10T17:23:37;18.15;;;10.10;;
55758;SDS011;41678;52.126;20.664;2022-12-10T17:29:09;34.08;;;13.55;;
55758;SDS011;41678;52.126;20.664;2022-12-10T17:34:33;21.42;;;8.27;;
55758;SDS011;41678;52.126;20.664;2022-12-10T17:39:54;25.88;;;11.07;;
55758;SDS011;41678;52.126;20.664;2022-12-10T17:45:15;27.50;;;11.68;;
55758;SDS011;41678;52.126;20.664;2022-12-10T17:50:37;21.98;;;11.80;;
55758;SDS011;41678;52.126;20.664;2022-12-10T17:55:58;27.80;;;12.65;;
55758;SDS011;41678;52.126;20.664;2022-12-10T18:01:19;25.05;;;11.50;;
55758;SDS011;41678;52.126;20.664;2022-12-10T18:06:40;28.10;;;12.73;;
55758;SDS011;41678;52.126;20.664;2022-12-10T18:11:59;31.77;;;11.82;;
55758;SDS011;41678;52.126;20.664;2022-12-10T18:17:19;27.52;;;13.13;;
55758;SDS011;41678;52.126;20.664;2022-12-10T18:22:38;32.55;;;13.02;;
55758;SDS011;41678;52.126;20.664;2022-12-10T18:28:00;28.65;;;13.23;;
55758;SDS011;41678;52.126;20.664;2022-12-10T18:33:23;27.80;;;12.20;;
55758;SDS011;41678;52.126;20.664;2022-12-10T18:38:43;29.10;;;13.57;;
55758;SDS011;41678;52.126;20.664;2022-12-10T18:44:04;30.25;;;14.80;;
55758;SDS011;41678;52.126;20.664;2022-12-10T18:49:24;28.48;;;13.10;;
55758;SDS011;41678;52.126;20.664;2022-12-10T18:54:44;24.98;;;11.57;;
55758;SDS011;41678;52.126;20.664;2022-12-10T19:00:06;28.45;;;12.85;;
55758;SDS011;41678;52.126;20.664;2022-12-10T19:05:35;24.58;;;10.93;;
55758;SDS011;41678;52.126;20.664;2022-12-10T19:10:56;24.70;;;9.95;;
55758;SDS011;41678;52.126;20.664;2022-12-10T19:16:20;36.03;;;12.88;;
55758;SDS011;41678;52.126;20.664;2022-12-10T19:21:41;29.55;;;12.40;;
55758;SDS011;41678;52.126;20.664;2022-12-10T19:27:02;30.15;;;12.75;;
55758;SDS011;41678;52.126;20.664;2022-12-10T19:32:22;28.75;;;10.57;;
55758;SDS011;41678;52.126;20.664;2022-12-10T19:37:42;29.08;;;12.15;;
55758;SDS011;41678;52.126;20.664;2022-12-10T19:43:03;29.90;;;12.23;;
55758;SDS011;41678;52.126;20.664;2022-12-10T19:48:23;30.65;;;11.88;;
55758;SDS011;41678;52.126;20.664;2022-12-10T19:53:43;32.60;;;16.00;;
55758;SDS011;41678;52.126;20.664;2022-12-10T19:59:08;25.75;;;10.13;;
55758;SDS011;41678;52.126;20.664;2022-12-10T20:04:32;22.27;;;11.15;;
55758;SDS011;41678;52.126;20.664;2022-12-10T20:09:51;28.23;;;11.82;;
55758;SDS011;41678;52.126;20.664;2022-12-10T20:15:11;31.92;;;13.50;;
55758;SDS011;41678;52.126;20.664;2022-12-10T20:20:31;28.15;;;9.90;;
55758;SDS011;41678;52.126;20.664;2022-12-10T20:25:51;37.03;;;14.57;;
55758;SDS011;41678;52.126;20.664;2022-12-10T20:31:11;35.65;;;14.05;;
55758;SDS011;41678;52.126;20.664;2022-12-10T20:36:31;17.35;;;8.77;;
55758;SDS011;41678;52.126;20.664;2022-12-10T20:41:50;31.50;;;14.43;;
55758;SDS011;41678;52.126;20.664;2022-12-10T20:47:11;40.63;;;15.70;;
55758;SDS011;41678;52.126;20.664;2022-12-10T20:52:31;28.33;;;11.65;;
55758;SDS011;41678;52.126;20.664;2022-12-10T20:57:50;36.25;;;14.63;;
55758;SDS011;41678;52.126;20.664;2022-12-10T21:03:10;32.88;;;12.95;;
55758;SDS011;41678;52.126;20.664;2022-12-10T21:08:30;40.58;;;16.00;;
55758;SDS011;41678;52.126;20.664;2022-12-10T21:13:50;37.88;;;16.63;;
55758;SDS011;41678;52.126;20.664;2022-12-10T21:19:11;40.33;;;14.35;;
55758;SDS011;41678;52.126;20.664;2022-12-10T21:24:31;40.20;;;14.00;;
55758;SDS011;41678;52.126;20.664;2022-12-10T21:29:51;44.08;;;16.70;;
55758;SDS011;41678;52.126;20.664;2022-12-10T21:35:12;46.88;;;17.30;;
55758;SDS011;41678;52.126;20.664;2022-12-10T21:40:32;48.65;;;18.17;;
55758;SDS011;41678;52.126;20.664;2022-12-10T21:45:52;38.70;;;17.38;;
55758;SDS011;41678;52.126;20.664;2022-12-10T21:51:14;54.53;;;17.73;;
55758;SDS011;41678;52.126;20.664;2022-12-10T21:56:34;32.88;;;15.43;;
55758;SDS011;41678;52.126;20.664;2022-12-10T22:01:55;41.45;;;15.57;;
55758;SDS011;41678;52.126;20.664;2022-12-10T22:07:15;44.40;;;17.40;;
55758;SDS011;41678;52.126;20.664;2022-12-10T22:12:35;45.05;;;17.38;;
55758;SDS011;41678;52.126;20.664;2022-12-10T22:17:55;42.40;;;16.45;;
55758;SDS011;41678;52.126;20.664;2022-12-10T22:23:14;49.47;;;17.67;;
55758;SDS011;41678;52.126;20.664;2022-12-10T22:28:34;53.15;;;17.55;;
55758;SDS011;41678;52.126;20.664;2022-12-10T22:33:54;26.65;;;11.13;;
55758;SDS011;41678;52.126;20.664;2022-12-10T22:39:14;40.58;;;14.25;;
55758;SDS011;41678;52.126;20.664;2022-12-10T22:44:34;36.92;;;16.42;;
55758;SDS011;41678;52.126;20.664;2022-12-10T22:49:54;32.75;;;13.63;;
55758;SDS011;41678;52.126;20.664;2022-12-10T22:55:15;26.35;;;11.10;;
55758;SDS011;41678;52.126;20.664;2022-12-10T23:00:35;37.22;;;12.05;;
55758;SDS011;41678;52.126;20.664;2022-12-10T23:05:55;38.08;;;13.43;;
55758;SDS011;41678;52.126;20.664;2022-12-10T23:11:16;30.88;;;13.90;;
55758;SDS011;41678;52.126;20.664;2022-12-10T23:16:36;30.10;;;12.43;;
55758;SDS011;41678;52.126;20.664;2022-12-10T23:21:56;37.70;;;15.77;;
55758;SDS011;41678;52.126;20.664;2022-12-10T23:27:16;41.67;;;14.23;;
55758;SDS011;41678;52.126;20.664;2022-12-10T23:32:36;36.80;;;14.13;;
55758;SDS011;41678;52.126;20.664;2022-12-10T23:37:56;31.52;;;12.77;;
55758;SDS011;41678;52.126;20.664;2022-12-10T23:43:16;35.38;;;12.73;;
55758;SDS011;41678;52.126;20.664;2022-12-10T23:48:36;34.58;;;14.15;;
55758;SDS011;41678;52.126;20.664;2022-12-10T23:53:55;34.45;;;12.60;;
55758;SDS011;41678;52.126;20.664;2022-12-10T23:59:15;27.50;;;11.70;;
